Albany, Ohio
Current Conditions -  °F | °C
As of 3:55 PM on Thursday 27 Nov 2014 (Local Time) from KUNI Reporting Station
Light Snow Light Snow  
Wind Chill: 22°   Ceiling: 2600
Heat Index: 31°   Visibility: 7mi
Dew Point: 25°   Wind: 13mph
Humidity: 78%   Direction: 270°W
Pressure: 30.24"   Gusts: NA
Location:  39.23°N, 82.2°W
Report Text: KUNI 272055Z AUTO 27011KT 7SM -SN SCT018 BKN026 OVC049 00/M04 A3024 RMK AO2 T10031037
Loading
Personal Weather Stations






























Interactive Weather Map New forecast layout! Learn more

10-Day Weather Forecast

Advertisements
Track Severe Weather on mobile